Armagh, Pennsylvania
Current Conditions -  °F | °C
As of 12:35 PM on Saturday 22 Nov 2014 (Local Time) from KIDI Reporting Station
Overcast Overcast  
Wind Chill: 29°   Ceiling: 1800
Heat Index: 36°   Visibility: 7mi
Dew Point: 23°   Wind: 8mph
Humidity: 60%   Direction: 230°SW
Pressure: 30.26"   Gusts: NA
Location:  40.45°N, 79.03°W
Report Text: KIDI 221735Z AUTO 23007KT 7SM OVC018 02/M05 A3026 RMK A01
Loading
Personal Weather Stations






























Interactive Weather Map New forecast layout! Learn more

10-Day Weather Forecast

Advertisements
Track Severe Weather on mobile